Time;durP1;ratioP1;P1;durP2;ratioP2;P2;SDS_P1;SDS_P2;PMS_P1;PMS_P2;Temp;Humidity;BMP_temperature;BMP_pressure;BME280_temperature;BME280_humidity;BME280_pressure;Samples;Min_cycle;Max_cycle;Signal;HPM_P1;HPM_P2
2021/12/05 00:18:20;;;;;;;11.20;7.10;;;4.00;99.90;;;;;;5134230;27;20199;-75
2021/12/05 00:23:40;;;;;;;13.30;7.87;;;4.10;99.90;;;;;;5132741;27;20645;-73
2021/12/05 00:26:10;;;;;;;15.20;8.90;;;4.10;99.90;;;;;;5132774;27;20291;-73
2021/12/05 00:31:44;;;;;;;13.87;8.57;;;4.10;99.90;;;;;;5125480;27;20269;-73
2021/12/05 00:34:31;;;;;;;14.80;9.33;;;4.20;99.90;;;;;;5127442;27;20204;-73
2021/12/05 00:48:17;;;;;;;15.73;8.73;;;4.20;99.90;;;;;;5132040;27;20326;-74
2021/12/05 01:09:44;;;;;;;22.93;12.77;;;4.50;99.90;;;;;;6205224;23;20174;-71
2021/12/05 01:15:04;;;;;;;26.57;12.60;;;4.50;99.90;;;;;;6252380;23;20177;-72
2021/12/05 01:17:34;;;;;;;21.33;13.47;;;4.50;99.90;;;;;;6251184;23;20239;-71
2021/12/05 01:20:05;;;;;;;21.80;11.40;;;4.50;99.90;;;;;;6252481;23;20181;-70
2021/12/05 01:22:36;;;;;;;21.60;12.30;;;4.60;99.90;;;;;;6252045;23;20170;-69
2021/12/05 01:25:17;;;;;;;22.73;12.70;;;4.60;99.90;;;;;;6250911;23;20174;-69
2021/12/05 01:27:49;;;;;;;24.93;14.07;;;4.60;99.90;;;;;;6249692;23;20174;-69
2021/12/05 01:30:26;;;;;;;24.10;13.33;;;4.70;99.90;;;;;;6252271;23;20208;-69
2021/12/05 01:33:01;;;;;;;22.73;13.03;;;4.70;99.90;;;;;;6250787;23;20198;-69
2021/12/05 01:35:46;;;;;;;25.07;13.50;;;4.80;99.90;;;;;;6226906;23;20173;-69
2021/12/05 01:38:23;;;;;;;24.53;13.67;;;4.90;99.90;;;;;;6251366;23;20174;-69
2021/12/05 01:41:03;;;;;;;24.33;12.77;;;4.90;99.90;;;;;;6252018;23;20528;-69
2021/12/05 01:52:33;;;;;;;25.20;14.70;;;4.90;99.90;;;;;;6165547;23;20219;-69
2021/12/05 02:01:09;;;;;;;24.63;14.40;;;4.90;99.90;;;;;;6197411;23;20493;-69
2021/12/05 02:09:36;;;;;;;26.03;16.57;;;4.90;99.90;;;;;;6244965;23;20182;-70
2021/12/05 02:12:31;;;;;;;30.20;16.83;;;4.90;99.90;;;;;;6243310;23;20597;-69
2021/12/05 02:15:13;;;;;;;27.87;18.20;;;4.90;99.90;;;;;;6245289;23;20185;-69
2021/12/05 02:31:47;;;;;;;31.80;18.60;;;5.10;99.90;;;;;;6244083;23;20211;-69
2021/12/05 02:34:23;;;;;;;32.33;20.17;;;5.10;99.90;;;;;;6242219;23;20171;-69
2021/12/05 02:42:29;;;;;;;33.30;19.27;;;5.20;99.90;;;;;;6234053;23;20248;-69
2021/12/05 02:44:56;;;;;;;32.93;19.20;;;5.20;99.90;;;;;;6244586;23;20193;-69
2021/12/05 02:47:27;;;;;;;29.90;18.73;;;5.20;99.90;;;;;;6242028;23;20166;-69
2021/12/05 02:49:58;;;;;;;31.40;19.27;;;5.10;99.90;;;;;;6244300;23;20178;-69
2021/12/05 02:52:32;;;;;;;31.43;19.80;;;5.20;99.90;;;;;;6244611;23;20183;-69
2021/12/05 02:55:07;;;;;;;34.13;19.47;;;5.20;99.90;;;;;;6242889;23;20488;-69
2021/12/05 02:57:50;;;;;;;36.00;19.60;;;5.20;99.90;;;;;;6244740;23;20231;-69
2021/12/05 03:00:23;;;;;;;29.57;17.90;;;5.20;99.90;;;;;;6244219;23;20178;-69
2021/12/05 03:02:53;;;;;;;30.83;18.10;;;5.20;99.90;;;;;;6241575;23;20236;-69
2021/12/05 03:05:22;;;;;;;31.97;19.37;;;5.20;99.90;;;;;;6243792;23;20257;-69
2021/12/05 03:07:57;;;;;;;34.53;20.03;;;5.20;99.90;;;;;;6244368;23;20516;-69
2021/12/05 03:10:24;;;;;;;29.23;18.17;;;5.10;99.90;;;;;;6244577;23;20654;-70
2021/12/05 03:12:51;;;;;;;32.77;17.53;;;5.20;99.90;;;;;;6243806;23;20178;-69
2021/12/05 03:15:20;;;;;;;28.97;17.53;;;5.20;99.90;;;;;;6244092;23;20182;-69
2021/12/05 03:17:48;;;;;;;30.77;18.10;;;5.20;99.90;;;;;;6244123;23;20159;-69
2021/12/05 03:20:17;;;;;;;27.27;17.70;;;5.20;99.90;;;;;;6244599;23;20163;-69
2021/12/05 03:22:44;;;;;;;28.13;16.90;;;5.20;99.90;;;;;;6241376;23;20205;-69
2021/12/05 03:25:14;;;;;;;27.50;16.23;;;5.20;99.90;;;;;;6244472;23;20213;-69
2021/12/05 03:27:41;;;;;;;24.80;15.57;;;5.20;99.90;;;;;;6241820;23;20158;-69
2021/12/05 03:30:11;;;;;;;25.23;15.37;;;5.20;99.90;;;;;;6243714;23;20217;-69
2021/12/05 03:32:41;;;;;;;27.00;15.60;;;5.30;99.90;;;;;;6242363;23;20716;-69
2021/12/05 03:35:10;;;;;;;28.23;16.00;;;5.30;99.90;;;;;;6241910;23;20491;-69
2021/12/05 03:37:37;;;;;;;29.87;15.00;;;5.20;99.90;;;;;;6243308;23;20167;-70
2021/12/05 03:40:07;;;;;;;25.93;14.40;;;5.30;99.90;;;;;;6244636;23;20522;-69
2021/12/05 03:42:36;;;;;;;23.50;14.10;;;5.30;99.90;;;;;;6241599;23;20159;-69
2021/12/05 03:45:06;;;;;;;29.53;15.67;;;5.30;99.90;;;;;;6243891;23;20213;-69
2021/12/05 03:47:33;;;;;;;26.90;14.97;;;5.30;99.90;;;;;;6242284;23;20553;-69
2021/12/05 03:50:00;;;;;;;27.33;14.97;;;5.30;99.90;;;;;;6244291;23;20224;-69
2021/12/05 03:52:27;;;;;;;21.43;12.97;;;5.30;99.90;;;;;;6242815;23;20233;-69
2021/12/05 03:54:55;;;;;;;21.00;11.30;;;5.30;99.90;;;;;;6243869;23;20155;-69
2021/12/05 03:57:22;;;;;;;20.63;10.80;;;5.30;99.90;;;;;;6243265;23;20155;-69
2021/12/05 03:59:50;;;;;;;22.93;10.60;;;5.40;99.90;;;;;;6244019;23;20205;-69
2021/12/05 04:02:17;;;;;;;17.63;9.73;;;5.40;99.90;;;;;;6240560;23;20167;-69
2021/12/05 04:04:44;;;;;;;19.73;9.70;;;5.30;99.90;;;;;;6243337;23;20596;-69
2021/12/05 04:07:15;;;;;;;19.33;9.77;;;5.30;99.90;;;;;;6243417;23;20181;-70
2021/12/05 04:09:42;;;;;;;18.97;10.23;;;5.30;99.90;;;;;;6243757;23;20178;-69
2021/12/05 04:12:10;;;;;;;16.90;9.77;;;5.20;99.90;;;;;;6242559;23;20552;-69
2021/12/05 04:14:42;;;;;;;22.23;12.20;;;5.20;99.90;;;;;;6243586;23;20246;-69
2021/12/05 04:17:13;;;;;;;17.00;10.10;;;5.10;99.90;;;;;;6241589;23;20768;-69
2021/12/05 04:19:40;;;;;;;17.23;10.27;;;5.10;99.90;;;;;;6242986;23;20212;-69
2021/12/05 04:22:09;;;;;;;17.97;10.03;;;5.00;99.90;;;;;;6243083;23;20177;-69
2021/12/05 04:24:37;;;;;;;18.57;9.57;;;5.00;99.90;;;;;;6242723;23;20159;-69
2021/12/05 04:27:05;;;;;;;15.67;9.30;;;5.00;99.90;;;;;;6243993;23;20162;-69
2021/12/05 04:29:33;;;;;;;17.37;8.80;;;5.00;99.90;;;;;;6243007;23;20155;-69
2021/12/05 04:32:01;;;;;;;17.10;8.93;;;4.90;99.90;;;;;;6242920;23;20182;-69
2021/12/05 04:34:29;;;;;;;14.20;8.37;;;5.00;99.90;;;;;;6243801;23;20244;-69
2021/12/05 04:36:57;;;;;;;14.30;8.00;;;4.90;99.90;;;;;;6243232;23;20155;-69
2021/12/05 04:39:25;;;;;;;16.33;8.17;;;4.80;99.90;;;;;;6243377;23;20220;-69
2021/12/05 04:41:52;;;;;;;15.90;8.00;;;4.80;99.90;;;;;;6240204;23;20154;-69
2021/12/05 04:44:22;;;;;;;17.43;8.23;;;4.80;99.90;;;;;;6242452;23;20169;-69
2021/12/05 04:46:49;;;;;;;15.33;8.10;;;4.70;99.90;;;;;;6242977;23;20186;-69
2021/12/05 04:49:17;;;;;;;17.63;8.07;;;4.70;99.90;;;;;;6242451;23;20208;-69
2021/12/05 04:51:46;;;;;;;16.03;8.37;;;4.70;99.90;;;;;;6243373;23;20586;-69
2021/12/05 04:54:15;;;;;;;15.27;7.00;;;4.60;99.90;;;;;;6241868;23;20183;-69
2021/12/05 04:56:44;;;;;;;11.23;6.83;;;4.60;99.90;;;;;;6242047;23;20162;-69
2021/12/05 04:59:14;;;;;;;17.00;7.50;;;4.60;99.90;;;;;;6242874;23;20597;-69
2021/12/05 05:01:42;;;;;;;16.00;6.63;;;4.50;99.90;;;;;;6242066;23;20181;-69
2021/12/05 05:04:18;;;;;;;13.53;6.10;;;4.50;99.90;;;;;;6241310;23;20190;-69
2021/12/05 05:06:47;;;;;;;16.20;7.17;;;4.50;99.90;;;;;;6243549;23;20206;-69
2021/12/05 05:09:14;;;;;;;15.80;6.87;;;4.50;99.90;;;;;;6243272;23;20155;-69
2021/12/05 05:11:42;;;;;;;15.40;6.80;;;4.40;99.90;;;;;;6242490;23;20167;-69
2021/12/05 05:14:09;;;;;;;12.23;6.20;;;4.40;99.90;;;;;;6242839;23;20583;-69
2021/12/05 05:16:37;;;;;;;14.63;6.10;;;4.40;99.90;;;;;;6241652;23;20179;-69
2021/12/05 05:19:04;;;;;;;12.37;6.23;;;4.50;99.90;;;;;;6241825;23;20602;-69
2021/12/05 05:21:39;;;;;;;12.20;6.10;;;4.40;99.90;;;;;;6242706;23;20159;-69
2021/12/05 05:24:45;;;;;;;15.13;6.67;;;4.40;99.90;;;;;;6242130;23;20169;-69
2021/12/05 05:27:38;;;;;;;12.80;5.53;;;4.40;99.90;;;;;;6242910;23;20178;-69
2021/12/05 05:30:40;;;;;;;13.20;5.83;;;4.40;99.90;;;;;;6243208;23;20491;-69
2021/12/05 05:41:57;;;;;;;14.53;6.37;;;4.40;99.90;;;;;;6245089;23;20158;-72
2021/12/05 05:44:38;;;;;;;14.57;6.50;;;4.40;99.90;;;;;;6244908;23;20176;-72
2021/12/05 05:47:09;;;;;;;16.27;6.20;;;4.40;99.90;;;;;;6243132;23;20174;-72
2021/12/05 05:49:51;;;;;;;12.47;5.53;;;4.40;99.90;;;;;;6243141;23;20236;-72
2021/12/05 05:52:20;;;;;;;15.67;6.60;;;4.30;99.90;;;;;;6244812;23;20193;-72
2021/12/05 05:54:49;;;;;;;13.90;6.07;;;4.20;99.90;;;;;;6243644;23;20183;-72
2021/12/05 05:57:23;;;;;;;12.63;6.40;;;4.20;99.90;;;;;;6245271;23;20155;-72
2021/12/05 05:59:58;;;;;;;12.97;6.83;;;4.10;99.90;;;;;;6244801;23;20534;-69
2021/12/05 06:05:10;;;;;;;13.43;5.93;;;4.00;99.90;;;;;;6244329;23;20161;-69
2021/12/05 06:07:42;;;;;;;10.00;6.57;;;3.90;99.90;;;;;;6245126;23;20163;-72
2021/12/05 06:10:11;;;;;;;12.63;5.30;;;3.80;99.90;;;;;;6243961;23;20573;-70
2021/12/05 06:12:40;;;;;;;14.93;5.47;;;3.80;99.90;;;;;;6242836;23;20154;-70
2021/12/05 06:15:12;;;;;;;10.63;5.77;;;3.80;99.90;;;;;;6245332;23;20155;-70
2021/12/05 06:17:39;;;;;;;14.47;6.07;;;3.70;99.90;;;;;;6242146;23;20183;-70
2021/12/05 06:20:08;;;;;;;9.60;5.10;;;3.60;99.90;;;;;;6244361;23;20162;-70
2021/12/05 06:22:35;;;;;;;12.37;4.87;;;3.60;99.90;;;;;;6242523;23;20162;-70
2021/12/05 06:25:04;;;;;;;10.13;5.03;;;3.40;99.90;;;;;;6243447;23;20220;-70
2021/12/05 06:27:31;;;;;;;14.17;5.30;;;3.20;99.90;;;;;;6243712;23;20186;-70
2021/12/05 06:30:08;;;;;;;9.37;4.97;;;3.20;99.90;;;;;;6245140;23;20229;-69
2021/12/05 06:38:11;;;;;;;11.77;5.40;;;3.00;99.90;;;;;;6245100;23;20174;-70
2021/12/05 06:41:01;;;;;;;11.23;5.30;;;2.90;99.90;;;;;;6244564;23;20466;-70
2021/12/05 06:46:19;;;;;;;12.43;5.60;;;2.70;99.90;;;;;;6244920;23;20647;-70
2021/12/05 06:48:46;;;;;;;11.93;5.30;;;2.70;99.90;;;;;;6243101;23;20185;-70
2021/12/05 06:51:17;;;;;;;9.63;4.43;;;2.60;99.90;;;;;;6244148;23;20257;-70
2021/12/05 06:53:44;;;;;;;12.27;5.50;;;2.60;99.90;;;;;;6243053;23;20629;-70
2021/12/05 06:56:11;;;;;;;13.00;5.27;;;2.60;99.90;;;;;;6244695;23;20204;-69
2021/12/05 06:58:39;;;;;;;11.77;5.97;;;2.60;99.90;;;;;;6243682;23;20236;-70
2021/12/05 07:01:09;;;;;;;14.93;5.93;;;2.60;99.90;;;;;;6244012;23;20159;-70
2021/12/05 07:03:40;;;;;;;21.00;10.10;;;2.60;99.90;;;;;;6243054;23;20179;-70
2021/12/05 07:06:10;;;;;;;15.10;6.73;;;2.60;99.90;;;;;;6244592;23;20166;-70
2021/12/05 07:08:39;;;;;;;13.40;5.43;;;2.70;99.90;;;;;;6244248;23;20206;-70
2021/12/05 07:11:13;;;;;;;11.07;5.37;;;2.80;99.90;;;;;;6242294;23;20159;-70
2021/12/05 07:14:08;;;;;;;14.83;6.43;;;3.00;99.90;;;;;;6243443;23;20206;-70
2021/12/05 07:16:41;;;;;;;10.00;5.83;;;3.00;99.90;;;;;;6243896;23;20518;-70
2021/12/05 07:19:28;;;;;;;12.47;5.63;;;3.00;99.90;;;;;;6243832;23;20178;-70
2021/12/05 07:21:59;;;;;;;12.10;5.00;;;3.00;99.90;;;;;;6243794;23;20155;-70
2021/12/05 07:24:37;;;;;;;13.60;5.60;;;3.00;99.90;;;;;;6244297;23;20177;-70
2021/12/05 07:40:45;;;;;;;12.33;4.87;;;3.30;99.90;;;;;;6243820;23;20588;-70
2021/12/05 07:43:16;;;;;;;10.77;4.73;;;3.40;99.90;;;;;;6243814;23;20162;-70
2021/12/05 07:45:54;;;;;;;9.27;4.60;;;3.40;99.90;;;;;;6243917;23;20178;-70
2021/12/05 07:48:26;;;;;;;8.37;4.70;;;3.50;99.90;;;;;;6243477;23;20182;-71
2021/12/05 07:51:07;;;;;;;11.37;4.73;;;3.50;99.90;;;;;;6242684;23;20181;-71
2021/12/05 07:53:42;;;;;;;12.13;5.80;;;3.50;99.90;;;;;;6243347;23;20190;-71
2021/12/05 07:56:15;;;;;;;8.73;4.60;;;3.60;99.90;;;;;;6243573;23;20200;-71
2021/12/05 08:15:17;;;;;;;11.80;4.63;;;4.00;99.90;;;;;;6243653;23;20644;-71
2021/12/05 08:17:50;;;;;;;10.47;4.40;;;4.10;99.90;;;;;;6243157;23;20548;-71
2021/12/05 08:20:20;;;;;;;9.67;3.80;;;4.10;99.90;;;;;;6243476;23;20171;-72
2021/12/05 08:22:48;;;;;;;8.23;4.17;;;4.20;99.90;;;;;;6242501;23;20497;-70
2021/12/05 08:25:16;;;;;;;8.97;4.33;;;4.30;99.90;;;;;;6243905;23;20158;-70
2021/12/05 08:27:48;;;;;;;12.57;4.33;;;4.30;99.90;;;;;;6243196;23;20273;-70
2021/12/05 08:30:24;;;;;;;10.97;4.50;;;4.30;99.90;;;;;;6243381;23;20185;-70
2021/12/05 08:33:10;;;;;;;12.03;4.43;;;4.40;99.90;;;;;;6242942;23;20178;-70
2021/12/05 08:36:02;;;;;;;11.60;4.70;;;4.50;99.90;;;;;;6243251;23;20170;-70
2021/12/05 08:41:45;;;;;;;17.57;4.73;;;4.60;99.90;;;;;;5161989;27;20581;-70
2021/12/05 10:02:34;;;;;;;9.63;2.30;;;6.00;99.90;;;;;;5168829;27;20609;-69
2021/12/05 10:10:35;;;;;;;8.13;2.17;;;6.00;99.90;;;;;;5133554;27;20199;-69
2021/12/05 10:13:11;;;;;;;5.77;2.30;;;6.00;99.90;;;;;;5168616;27;20228;-69
2021/12/05 10:15:53;;;;;;;6.23;2.10;;;6.10;99.90;;;;;;5170629;27;20201;-69
2021/12/05 10:27:20;;;;;;;7.60;2.03;;;6.20;99.90;;;;;;5170926;27;20229;-69
2021/12/05 10:38:14;;;;;;;13.40;4.17;;;6.30;99.90;;;;;;5140899;27;20550;-69
2021/12/05 10:40:47;;;;;;;9.70;3.70;;;6.40;99.90;;;;;;5170695;27;20549;-69
2021/12/05 10:43:18;;;;;;;4.87;2.03;;;6.30;99.90;;;;;;5165649;27;20203;-74
2021/12/05 10:45:48;;;;;;;6.13;1.97;;;6.30;99.90;;;;;;5169850;27;20664;-69
2021/12/05 10:48:24;;;;;;;5.30;2.23;;;6.30;99.90;;;;;;5166483;27;20203;-70
2021/12/05 10:50:53;;;;;;;8.07;1.70;;;6.20;99.90;;;;;;5150043;27;20211;-69
2021/12/05 10:53:27;;;;;;;7.30;2.23;;;6.20;99.90;;;;;;5167951;27;20672;-69
2021/12/05 10:55:57;;;;;;;11.10;2.53;;;6.20;99.90;;;;;;5171053;27;20198;-69
2021/12/05 10:58:31;;;;;;;5.67;2.00;;;6.30;99.90;;;;;;5160736;27;20200;-69
2021/12/05 11:01:10;;;;;;;9.07;2.90;;;6.20;99.90;;;;;;5149223;27;20195;-69
2021/12/05 11:03:38;;;;;;;7.80;2.10;;;6.20;99.90;;;;;;5164198;27;20199;-69
2021/12/05 11:06:19;;;;;;;5.53;2.00;;;6.20;99.90;;;;;;5156852;27;20196;-68
2021/12/05 11:08:46;;;;;;;9.70;2.17;;;6.20;99.90;;;;;;5147062;27;20207;-69
2021/12/05 11:11:14;;;;;;;7.43;2.10;;;6.10;99.90;;;;;;5145153;27;20199;-69
2021/12/05 11:13:45;;;;;;;4.40;1.77;;;6.10;99.90;;;;;;5142819;27;20223;-72
2021/12/05 11:16:54;;;;;;;11.47;2.43;;;6.10;99.90;;;;;;5149169;27;20238;-71
2021/12/05 11:19:30;;;;;;;7.00;2.10;;;6.10;99.90;;;;;;5104384;27;20198;-70
2021/12/05 11:22:01;;;;;;;3.87;1.73;;;6.10;99.90;;;;;;5137941;27;20218;-68
2021/12/05 11:24:34;;;;;;;7.73;2.37;;;6.20;99.90;;;;;;5151065;27;20196;-68
2021/12/05 11:27:20;;;;;;;6.27;2.10;;;6.20;99.90;;;;;;5141037;27;20200;-68
2021/12/05 11:30:10;;;;;;;6.17;2.00;;;6.30;99.90;;;;;;5147614;27;20199;-68
2021/12/05 11:32:40;;;;;;;4.60;2.17;;;6.30;99.90;;;;;;5143542;27;20258;-68
2021/12/05 11:35:24;;;;;;;7.13;2.07;;;6.30;99.90;;;;;;5144845;27;20198;-68
2021/12/05 11:37:58;;;;;;;6.27;2.67;;;6.30;99.90;;;;;;5150065;27;20215;-68
2021/12/05 11:40:28;;;;;;;6.40;2.00;;;6.30;99.90;;;;;;5145459;27;20203;-68
2021/12/05 11:42:59;;;;;;;7.27;1.90;;;6.30;99.90;;;;;;5141597;27;20637;-68
2021/12/05 11:45:28;;;;;;;5.97;2.20;;;6.20;99.90;;;;;;5142809;27;20645;-68
2021/12/05 11:47:56;;;;;;;8.00;1.93;;;6.30;99.90;;;;;;5150455;27;20204;-68
2021/12/05 11:50:32;;;;;;;5.90;2.30;;;6.30;99.90;;;;;;5145640;27;20197;-68
2021/12/05 11:52:59;;;;;;;8.53;3.57;;;6.30;99.90;;;;;;5141576;27;20689;-68
2021/12/05 11:55:29;;;;;;;8.40;2.90;;;6.30;99.90;;;;;;5146555;27;20539;-68
2021/12/05 11:57:56;;;;;;;8.20;2.03;;;6.40;99.90;;;;;;5145413;27;20219;-68
2021/12/05 12:00:25;;;;;;;7.23;1.93;;;6.40;99.90;;;;;;5146807;27;20564;-68
2021/12/05 12:02:53;;;;;;;8.93;2.23;;;6.40;99.90;;;;;;5142351;27;20204;-68
2021/12/05 12:05:23;;;;;;;5.87;2.20;;;6.40;99.90;;;;;;5147477;27;20210;-68
2021/12/05 12:07:52;;;;;;;5.07;2.10;;;6.50;99.90;;;;;;5143781;27;20200;-68
2021/12/05 12:10:23;;;;;;;4.90;1.97;;;6.50;99.90;;;;;;5148960;27;20199;-68
2021/12/05 12:12:52;;;;;;;9.07;2.43;;;6.60;99.90;;;;;;5142584;27;20235;-68
2021/12/05 12:15:20;;;;;;;8.53;2.50;;;6.60;99.90;;;;;;5146689;27;20208;-68
2021/12/05 12:17:50;;;;;;;5.23;1.83;;;6.60;99.90;;;;;;5143381;27;20206;-68
2021/12/05 12:20:22;;;;;;;10.20;2.07;;;6.70;99.90;;;;;;5153720;27;20218;-68
2021/12/05 12:22:50;;;;;;;5.30;2.23;;;6.70;99.90;;;;;;5143508;27;20227;-68
2021/12/05 12:25:24;;;;;;;5.80;1.80;;;6.70;99.90;;;;;;5140918;27;20210;-68
2021/12/05 12:27:52;;;;;;;4.00;2.00;;;6.70;99.90;;;;;;5150224;27;20199;-68
2021/12/05 12:30:24;;;;;;;5.87;2.00;;;6.80;99.90;;;;;;5144145;27;20207;-68
2021/12/05 12:32:55;;;;;;;7.73;3.00;;;7.10;99.90;;;;;;5148857;27;20217;-68
2021/12/05 12:35:28;;;;;;;8.77;3.47;;;7.00;99.90;;;;;;5137974;27;20662;-68
2021/12/05 12:38:06;;;;;;;9.60;4.50;;;7.00;99.90;;;;;;5146400;27;20215;-68
2021/12/05 12:40:40;;;;;;;7.93;4.03;;;7.10;99.90;;;;;;5144871;27;20213;-76
2021/12/05 12:43:09;;;;;;;5.50;2.77;;;7.00;99.90;;;;;;5146825;27;20192;-76
2021/12/05 12:45:40;;;;;;;8.20;2.63;;;7.00;99.90;;;;;;5143849;27;20197;-76
2021/12/05 12:48:12;;;;;;;10.60;2.97;;;6.90;99.90;;;;;;5147197;27;20610;-76
2021/12/05 12:50:51;;;;;;;5.80;2.83;;;6.90;99.90;;;;;;5140512;27;20196;-76
2021/12/05 12:53:22;;;;;;;8.67;2.30;;;6.90;99.90;;;;;;5127706;27;20227;-76
2021/12/05 12:55:56;;;;;;;7.57;2.40;;;6.70;99.90;;;;;;5141482;27;20208;-76
2021/12/05 12:58:47;;;;;;;5.67;2.33;;;6.80;99.90;;;;;;5144388;27;20203;-71
2021/12/05 13:01:34;;;;;;;10.83;3.00;;;6.80;99.90;;;;;;5145419;27;20286;-76
2021/12/05 13:12:35;;;;;;;11.07;4.07;;;6.70;99.90;;;;;;5144791;27;20233;-75
2021/12/05 13:15:06;;;;;;;4.87;2.93;;;6.80;99.90;;;;;;5140449;27;20204;-74
2021/12/05 13:17:41;;;;;;;14.13;3.23;;;6.70;99.90;;;;;;5143702;27;20566;-75
2021/12/05 13:20:10;;;;;;;6.40;2.57;;;6.60;99.90;;;;;;5147412;27;20199;-76
2021/12/05 13:23:09;;;;;;;6.57;2.13;;;6.50;99.90;;;;;;5137440;27;20237;-75
2021/12/05 13:26:02;;;;;;;6.83;2.03;;;6.50;99.90;;;;;;5141471;27;20196;-76
2021/12/05 13:28:33;;;;;;;10.90;4.23;;;6.50;99.90;;;;;;5143610;27;20200;-75
2021/12/05 13:31:32;;;;;;;4.30;2.30;;;6.40;99.90;;;;;;5138430;27;20197;-76
2021/12/05 13:34:28;;;;;;;6.70;1.90;;;6.50;99.90;;;;;;5145507;27;20223;-75
2021/12/05 13:36:59;;;;;;;6.87;3.17;;;6.40;99.90;;;;;;5143329;27;20202;-76
2021/12/05 13:39:36;;;;;;;9.30;2.73;;;6.30;99.90;;;;;;5134331;27;20246;-75
2021/12/05 13:42:07;;;;;;;6.37;2.40;;;6.20;99.90;;;;;;5144312;27;20573;-76
2021/12/05 13:45:13;;;;;;;9.40;2.87;;;6.30;99.90;;;;;;5147871;27;20199;-76
2021/12/05 13:47:45;;;;;;;7.03;2.00;;;6.40;99.90;;;;;;5145132;27;20688;-75
2021/12/05 13:50:37;;;;;;;7.70;2.23;;;6.40;99.90;;;;;;5145766;27;20198;-76
2021/12/05 13:53:20;;;;;;;7.13;2.43;;;6.40;99.90;;;;;;5144038;27;20269;-75
2021/12/05 13:55:50;;;;;;;9.70;2.70;;;6.50;99.90;;;;;;5143394;27;20211;-75
2021/12/05 13:58:23;;;;;;;7.47;2.20;;;6.40;99.90;;;;;;5145879;27;20650;-72
2021/12/05 14:00:56;;;;;;;9.53;2.60;;;6.40;99.90;;;;;;5143655;27;20236;-76
2021/12/05 14:03:50;;;;;;;8.77;2.50;;;6.30;99.90;;;;;;5144237;27;20791;-75
2021/12/05 14:06:28;;;;;;;5.70;2.60;;;6.20;99.90;;;;;;5149218;27;20196;-75
2021/12/05 14:08:59;;;;;;;4.50;2.57;;;6.10;99.90;;;;;;5146655;27;20191;-75
2021/12/05 14:11:27;;;;;;;8.87;3.60;;;6.10;99.90;;;;;;5137855;27;20568;-75
2021/12/05 14:13:55;;;;;;;7.93;2.83;;;6.00;99.90;;;;;;5145505;27;20223;-75
2021/12/05 14:16:31;;;;;;;9.20;3.00;;;5.90;99.90;;;;;;5149467;27;20200;-75
2021/12/05 14:18:58;;;;;;;10.53;2.73;;;5.80;99.90;;;;;;5140711;27;20192;-76
2021/12/05 14:21:26;;;;;;;7.33;2.87;;;5.70;99.90;;;;;;5137312;27;20196;-75
2021/12/05 14:23:55;;;;;;;10.40;2.60;;;5.60;99.90;;;;;;5147845;27;20199;-75
2021/12/05 14:26:25;;;;;;;11.03;2.73;;;5.50;99.90;;;;;;5135998;27;20195;-75
2021/12/05 14:28:58;;;;;;;6.40;2.97;;;5.40;99.90;;;;;;5147714;27;20245;-75
2021/12/05 14:31:26;;;;;;;8.13;2.87;;;5.30;99.90;;;;;;5139521;27;20210;-75
2021/12/05 14:33:55;;;;;;;6.63;2.40;;;5.20;99.90;;;;;;5141570;27;20223;-75
2021/12/05 14:36:24;;;;;;;7.47;3.10;;;5.10;99.90;;;;;;5138733;27;20292;-75
2021/12/05 14:39:10;;;;;;;6.83;2.90;;;5.00;99.90;;;;;;5144196;27;20564;-75
2021/12/05 14:41:37;;;;;;;7.00;3.17;;;4.80;99.90;;;;;;5146581;27;20428;-75
2021/12/05 14:44:06;;;;;;;6.87;3.50;;;4.60;99.90;;;;;;5146382;27;20196;-75
2021/12/05 14:46:33;;;;;;;7.53;3.30;;;4.50;99.90;;;;;;5145913;27;20355;-75
2021/12/05 14:49:02;;;;;;;8.43;3.30;;;4.50;99.90;;;;;;5149721;27;20551;-76
2021/12/05 14:51:35;;;;;;;8.23;3.83;;;4.50;99.90;;;;;;5146393;27;20788;-74
2021/12/05 14:54:04;;;;;;;9.50;4.43;;;4.40;99.90;;;;;;5141563;27;20223;-74
2021/12/05 14:56:33;;;;;;;7.20;3.60;;;4.40;99.90;;;;;;5150980;27;20238;-74
2021/12/05 14:59:07;;;;;;;6.17;2.70;;;4.40;99.90;;;;;;5143579;27;20192;-74
2021/12/05 15:01:35;;;;;;;6.90;3.00;;;4.10;99.90;;;;;;5146641;27;20560;-75
2021/12/05 15:04:04;;;;;;;6.60;2.90;;;3.90;99.90;;;;;;5141127;27;20191;-74
2021/12/05 15:06:35;;;;;;;9.23;3.40;;;3.90;99.90;;;;;;5145135;27;20565;-75
2021/12/05 15:09:04;;;;;;;6.00;2.90;;;3.80;99.90;;;;;;5141734;27;20283;-75
2021/12/05 15:11:31;;;;;;;5.27;2.87;;;3.80;99.90;;;;;;5152917;27;20200;-74
2021/12/05 15:14:09;;;;;;;6.13;2.50;;;3.80;99.90;;;;;;5146724;27;20546;-74
2021/12/05 15:16:35;;;;;;;5.97;2.80;;;3.70;99.90;;;;;;5145826;27;20200;-73
2021/12/05 15:19:02;;;;;;;8.53;3.37;;;3.50;99.90;;;;;;5152646;27;20238;-74
2021/12/05 15:21:42;;;;;;;10.00;2.50;;;3.40;99.90;;;;;;5141490;27;20200;-73
2021/12/05 15:24:13;;;;;;;3.10;1.60;;;3.30;99.90;;;;;;5147098;27;20192;-73
2021/12/05 15:26:40;;;;;;;7.03;2.40;;;3.20;99.90;;;;;;5139878;27;20212;-73
2021/12/05 15:29:09;;;;;;;5.23;2.27;;;3.00;99.90;;;;;;5146515;27;20204;-73
2021/12/05 15:31:37;;;;;;;7.40;2.20;;;3.00;99.90;;;;;;5140927;27;20432;-73
2021/12/05 15:34:22;;;;;;;6.40;2.70;;;2.90;99.90;;;;;;5152715;27;20220;-73
2021/12/05 15:36:49;;;;;;;3.70;2.80;;;2.90;99.90;;;;;;5153816;27;20215;-73
2021/12/05 15:39:24;;;;;;;9.37;4.53;;;2.90;99.90;;;;;;5137467;27;20197;-74
2021/12/05 15:41:54;;;;;;;10.37;5.90;;;3.00;99.90;;;;;;5144966;27;20199;-74
2021/12/05 15:44:29;;;;;;;12.03;4.97;;;2.90;99.90;;;;;;5141856;27;20202;-73
2021/12/05 15:47:08;;;;;;;9.90;3.90;;;2.90;99.90;;;;;;5146007;27;20199;-74
2021/12/05 15:49:53;;;;;;;7.47;3.40;;;2.80;99.90;;;;;;5138620;27;20533;-74
2021/12/05 15:52:25;;;;;;;5.97;2.70;;;2.60;99.90;;;;;;5147592;27;20578;-73
2021/12/05 15:54:52;;;;;;;7.27;2.60;;;2.50;99.90;;;;;;5136661;27;20211;-73
2021/12/05 15:57:29;;;;;;;7.23;2.60;;;2.30;99.90;;;;;;5146876;27;20205;-74
2021/12/05 16:00:00;;;;;;;7.43;3.20;;;2.40;99.90;;;;;;5142075;27;20196;-73
2021/12/05 16:02:27;;;;;;;9.67;3.87;;;2.40;99.90;;;;;;5137866;27;20238;-74
2021/12/05 16:04:56;;;;;;;7.40;3.70;;;2.50;99.90;;;;;;5141565;27;20213;-74
2021/12/05 16:07:27;;;;;;;5.90;3.33;;;2.50;99.90;;;;;;5146226;27;20215;-73
2021/12/05 16:10:10;;;;;;;5.53;2.60;;;2.60;99.90;;;;;;5146198;27;20618;-73
2021/12/05 16:12:39;;;;;;;7.23;3.17;;;2.50;99.90;;;;;;5133444;27;20196;-68
2021/12/05 16:15:09;;;;;;;6.97;3.07;;;2.30;99.90;;;;;;5149495;27;20669;-68
2021/12/05 16:17:36;;;;;;;4.97;2.80;;;2.20;99.90;;;;;;5138463;27;20212;-69
2021/12/05 16:20:09;;;;;;;4.80;2.70;;;1.90;99.90;;;;;;5143472;27;20630;-69
2021/12/05 16:22:58;;;;;;;7.53;2.63;;;1.70;99.90;;;;;;5141272;27;20197;-70
2021/12/05 16:25:25;;;;;;;7.07;2.80;;;1.80;99.90;;;;;;5139672;27;20198;-70
2021/12/05 16:27:54;;;;;;;7.60;3.30;;;1.90;99.90;;;;;;5146194;27;20442;-70
2021/12/05 16:30:23;;;;;;;9.23;3.50;;;2.10;99.90;;;;;;5134756;27;20204;-70
2021/12/05 16:32:51;;;;;;;15.90;6.03;;;2.20;99.90;;;;;;5138468;27;20701;-70
2021/12/05 16:35:26;;;;;;;10.13;3.50;;;2.00;99.90;;;;;;5135083;27;20216;-70
2021/12/05 16:37:53;;;;;;;5.80;2.57;;;1.90;99.90;;;;;;5138597;27;20200;-70
2021/12/05 16:40:20;;;;;;;7.27;2.50;;;1.60;99.90;;;;;;5141273;27;20196;-70
2021/12/05 16:42:47;;;;;;;10.27;4.40;;;1.60;99.90;;;;;;5137362;27;20231;-70
2021/12/05 16:45:17;;;;;;;9.63;4.43;;;1.70;99.90;;;;;;5146006;27;20192;-70
2021/12/05 16:47:45;;;;;;;11.57;4.70;;;1.80;99.90;;;;;;5141488;27;20200;-68
2021/12/05 16:50:13;;;;;;;3.00;2.00;;;1.70;99.90;;;;;;5145008;27;20208;-68
2021/12/05 16:52:48;;;;;;;3.13;2.07;;;1.50;99.90;;;;;;5143036;27;20598;-68
2021/12/05 16:55:23;;;;;;;3.53;2.23;;;1.30;99.90;;;;;;5139017;27;20550;-68
2021/12/05 16:57:58;;;;;;;10.07;3.80;;;1.20;99.90;;;;;;5135751;27;20582;-68
2021/12/05 17:00:27;;;;;;;8.10;2.40;;;1.20;99.90;;;;;;5150002;27;20203;-68
2021/12/05 17:02:57;;;;;;;7.67;2.90;;;1.30;99.90;;;;;;5142800;27;20196;-68
2021/12/05 17:05:27;;;;;;;7.70;3.40;;;1.40;99.90;;;;;;5137248;27;20195;-68
2021/12/05 17:08:05;;;;;;;9.83;4.13;;;1.50;99.90;;;;;;5145073;27;20208;-68
2021/12/05 17:10:41;;;;;;;5.63;4.40;;;1.70;99.90;;;;;;5140527;27;20251;-68
2021/12/05 17:13:26;;;;;;;10.57;4.83;;;1.70;99.90;;;;;;5137642;27;20210;-68
2021/12/05 17:15:58;;;;;;;9.47;4.77;;;1.50;99.90;;;;;;5146114;27;20222;-68
2021/12/05 17:18:29;;;;;;;14.00;5.10;;;1.60;99.90;;;;;;5146520;27;20203;-68
2021/12/05 17:20:58;;;;;;;10.63;5.10;;;1.70;99.90;;;;;;5141866;27;20667;-68
2021/12/05 17:23:29;;;;;;;11.80;6.10;;;2.00;99.90;;;;;;5142863;27;20208;-68
2021/12/05 17:26:05;;;;;;;12.57;6.80;;;2.20;99.90;;;;;;5143952;27;20199;-68
2021/12/05 17:28:35;;;;;;;14.43;7.13;;;2.20;99.90;;;;;;5145880;27;20210;-68
2021/12/05 17:31:04;;;;;;;20.80;9.30;;;2.00;99.90;;;;;;5142935;27;20200;-68
2021/12/05 17:33:36;;;;;;;14.33;7.13;;;2.00;99.90;;;;;;5145101;27;20648;-68
2021/12/05 17:36:31;;;;;;;17.97;8.27;;;1.90;99.90;;;;;;5143424;27;20215;-68
2021/12/05 17:39:01;;;;;;;29.03;14.53;;;2.00;99.90;;;;;;5139467;27;20568;-68